Current Conditions
Misty
Conditions



Pressure
1028.92 (hPa) - 30.38 (inHG)
Visibility

3.1 (miles) - 5.0 (km)
   Temperature
-2  °C
Temperature
-2  °C
Dewpoint
100  %
 Humidity
   Wind Speed
6  mph
5  kts
10  km/h
2.7  m/s
   Wind Direction
N
45°
E
90°
135°
S
180°
225°
W
270°
315°
 140°

South East
   Airport Data
EGVO
RAF Odiham
Metar :EGVO 151950Z AUTO 14005KT 4600 BR NCD M02/M02 Q1029
Fri 15th January 19:50 pm
   Raw Metar Info
Raw METAR is the most common format in the world for the transmission of observational weather data. It is highly standardized through the International Civil Aviation Organization (ICAO), which allows it to be understood throughout most of the world.
   API Info
Data Provided by
https://www.checkwx.com/weather/EGVO

Aviation Weather providing METAR, TAF, AIRMET, SIGMET and OUTLOOK Weather Reports
   © Info
CSS/SVG/PHP scripts were developed by weather34.com for use in the weather34 template © 2015-2021

Guide Info provided by Metar-Wikipedia